createdAt,value
2018-06-03T00:02:03.190Z,56.97
2018-06-03T00:04:31.617Z,59.20
2018-06-03T00:06:59.370Z,52.77
2018-06-03T00:09:27.093Z,59.87
2018-06-03T00:11:54.813Z,61.43
2018-06-03T00:14:22.572Z,64.47
2018-06-03T00:16:50.322Z,65.10
2018-06-03T00:19:18.054Z,72.33
2018-06-03T00:21:46.485Z,79.03
2018-06-03T00:24:14.241Z,79.00
2018-06-03T00:26:42.013Z,75.47
2018-06-03T00:29:11.585Z,83.90
2018-06-03T00:31:39.271Z,84.07
2018-06-03T00:34:07.000Z,81.63
2018-06-03T00:36:43.711Z,81.17
2018-06-03T00:39:11.546Z,79.57
2018-06-03T00:41:39.207Z,77.47
2018-06-03T00:44:06.867Z,81.60
2018-06-03T00:46:34.531Z,79.90
2018-06-03T00:49:02.292Z,81.40
2018-06-03T00:51:29.909Z,75.97
2018-06-03T00:53:57.642Z,73.60
2018-06-03T00:56:37.262Z,72.97
2018-06-03T00:59:05.026Z,69.67
2018-06-03T01:01:32.604Z,71.67
2018-06-03T01:04:00.199Z,70.07
2018-06-03T01:06:27.782Z,65.93
2018-06-03T01:08:55.385Z,67.33
2018-06-03T01:11:22.954Z,70.40
2018-06-03T01:13:50.530Z,66.80
2018-06-03T01:16:18.092Z,69.07
2018-06-03T01:18:46.449Z,66.70
2018-06-03T01:21:14.074Z,67.87
2018-06-03T01:23:41.675Z,70.43
2018-06-03T01:26:09.232Z,71.33
2018-06-03T01:28:36.846Z,67.40
2018-06-03T01:31:05.230Z,64.17
2018-06-03T01:33:32.844Z,66.77
2018-06-03T01:36:00.466Z,66.83
2018-06-03T01:38:28.068Z,66.63
2018-06-03T01:40:55.644Z,65.50
2018-06-03T01:43:23.327Z,66.57
2018-06-03T01:45:50.891Z,66.50
2018-06-03T01:48:18.434Z,68.63
2018-06-03T01:50:46.814Z,68.53
2018-06-03T01:53:14.438Z,70.63
2018-06-03T01:55:42.969Z,68.17
2018-06-03T01:58:10.560Z,77.37
2018-06-03T02:00:38.138Z,69.87
2018-06-03T02:03:06.457Z,67.13
2018-06-03T02:05:34.043Z,69.23
2018-06-03T02:08:01.610Z,72.03
2018-06-03T02:10:29.163Z,74.90
2018-06-03T02:12:56.789Z,74.43
2018-06-03T02:15:25.272Z,66.07
2018-06-03T02:17:52.897Z,71.40
2018-06-03T02:20:20.493Z,77.43
2018-06-03T02:22:48.112Z,77.97
2018-06-03T02:25:16.429Z,76.20
2018-06-03T02:27:44.017Z,74.40
2018-06-03T02:30:11.571Z,79.63
2018-06-03T02:32:39.177Z,71.97
2018-06-03T02:35:06.806Z,81.97
2018-06-03T02:37:35.225Z,85.20
2018-06-03T02:40:02.865Z,82.33
2018-06-03T02:42:30.458Z,77.67
2018-06-03T02:44:58.029Z,77.30
2018-06-03T02:47:25.615Z,79.20
2018-06-03T02:49:53.215Z,78.50
2018-06-03T02:52:20.821Z,83.67
2018-06-03T02:54:48.438Z,82.67
2018-06-03T02:57:15.988Z,77.93
2018-06-03T02:59:43.601Z,79.50
2018-06-03T03:02:11.203Z,81.67
2018-06-03T03:04:38.773Z,84.60
2018-06-03T03:07:06.344Z,86.30
2018-06-03T03:09:33.931Z,80.07
2018-06-03T03:12:01.533Z,84.73
2018-06-03T03:14:29.142Z,81.83
2018-06-03T03:16:56.746Z,81.63
2018-06-03T03:19:25.061Z,81.40
2018-06-03T03:21:52.661Z,82.47
2018-06-03T03:24:20.988Z,81.60
2018-06-03T03:26:48.622Z,80.90
2018-06-03T03:29:16.193Z,77.43
2018-06-03T03:31:43.751Z,78.00
2018-06-03T03:34:11.322Z,80.47
2018-06-03T03:36:40.841Z,82.90
2018-06-03T03:39:08.428Z,79.93
2018-06-03T03:41:36.018Z,78.83
2018-06-03T03:44:04.351Z,77.57
2018-06-03T03:46:31.976Z,77.90
2018-06-03T03:48:59.555Z,79.77
2018-06-03T03:51:27.178Z,80.27
2018-06-03T03:53:54.801Z,84.20
2018-06-03T03:56:22.380Z,80.77
2018-06-03T03:58:50.729Z,78.40
2018-06-03T04:01:18.332Z,83.73
2018-06-03T04:03:45.915Z,74.27
2018-06-03T04:06:13.536Z,75.23
2018-06-03T04:08:41.906Z,76.90
2018-06-03T04:11:10.294Z,76.90
2018-06-03T04:13:38.625Z,77.70
2018-06-03T04:16:06.267Z,73.57
2018-06-03T04:18:33.901Z,67.93
2018-06-03T04:21:01.483Z,72.30
2018-06-03T04:23:29.090Z,75.37
2018-06-03T04:25:57.476Z,70.00
2018-06-03T04:28:25.838Z,75.93
2018-06-03T04:30:53.434Z,68.50
2018-06-03T04:33:21.024Z,70.23
2018-06-03T04:35:48.619Z,66.80
2018-06-03T04:38:16.232Z,64.77
2018-06-03T04:40:43.856Z,69.57
2018-06-03T04:43:12.199Z,66.27
2018-06-03T04:45:39.779Z,63.20
2018-06-03T04:48:08.177Z,67.17
2018-06-03T04:50:35.754Z,65.17
2018-06-03T04:53:03.334Z,61.90
2018-06-03T04:55:31.777Z,63.27
2018-06-03T04:57:59.361Z,63.27
2018-06-03T05:00:26.948Z,64.80
2018-06-03T05:02:54.566Z,66.00
2018-06-03T05:05:22.164Z,66.43
2018-06-03T05:07:49.777Z,66.40
2018-06-03T05:10:17.337Z,68.83
2018-06-03T05:12:44.925Z,68.10
2018-06-03T05:15:13.351Z,68.60
2018-06-03T05:17:40.968Z,66.80
2018-06-03T05:20:08.535Z,68.97
2018-06-03T05:22:36.123Z,69.43
2018-06-03T05:25:03.676Z,66.07
2018-06-03T05:27:32.141Z,67.03
2018-06-03T05:29:59.728Z,71.30
2018-06-03T05:32:28.139Z,65.93
2018-06-03T05:34:55.731Z,69.73
2018-06-03T05:37:23.310Z,72.90
2018-06-03T05:39:50.885Z,68.90
2018-06-03T05:42:18.558Z,66.70
2018-06-03T05:44:46.206Z,70.80
2018-06-03T05:47:13.831Z,72.93
2018-06-03T05:49:41.470Z,68.47
2018-06-03T05:52:09.090Z,71.17
2018-06-03T05:54:36.658Z,70.37
2018-06-03T05:57:04.304Z,67.50
2018-06-03T05:59:31.911Z,70.40
2018-06-03T06:01:59.543Z,71.07
2018-06-03T06:04:27.114Z,66.50
2018-06-03T06:06:54.778Z,65.70
2018-06-03T06:09:22.436Z,68.10
2018-06-03T06:11:51.355Z,63.37
2018-06-03T06:14:18.956Z,60.93
2018-06-03T06:16:46.567Z,60.80
2018-06-03T06:19:14.197Z,65.97
2018-06-03T06:21:41.826Z,63.93
2018-06-03T06:24:10.502Z,63.70
2018-06-03T06:26:38.835Z,61.47
2018-06-03T06:29:06.395Z,56.50
2018-06-03T06:31:34.036Z,58.90
2018-06-03T06:34:01.606Z,64.57
2018-06-03T06:36:29.176Z,54.50
2018-06-03T06:38:56.748Z,57.50
2018-06-03T06:41:24.343Z,49.93
2018-06-03T06:43:51.950Z,54.47
2018-06-03T06:46:19.543Z,54.70
2018-06-03T06:48:47.939Z,56.77
2018-06-03T06:51:16.266Z,51.27
2018-06-03T06:53:43.827Z,52.53
2018-06-03T06:56:11.418Z,50.20
2018-06-03T06:58:39.756Z,48.27
2018-06-03T07:01:07.391Z,50.07
2018-06-03T07:03:36.016Z,50.63
2018-06-03T07:06:03.663Z,44.80
2018-06-03T07:08:31.241Z,48.77
2018-06-03T07:10:58.816Z,49.30
2018-06-03T07:13:27.182Z,50.50
2018-06-03T07:15:54.822Z,50.07
2018-06-03T07:18:22.424Z,53.40
2018-06-03T07:20:50.757Z,51.33
2018-06-03T07:23:18.461Z,51.57
2018-06-03T07:25:45.976Z,50.50
2018-06-03T07:28:13.586Z,51.50
2018-06-03T07:30:41.223Z,51.00
2018-06-03T07:33:09.649Z,48.63
2018-06-03T07:35:37.260Z,47.47
2018-06-03T07:38:05.635Z,45.00
2018-06-03T07:40:33.240Z,43.53
2018-06-03T07:43:00.804Z,43.77
2018-06-03T07:45:28.398Z,41.67
2018-06-03T07:47:56.053Z,39.60
2018-06-03T07:50:23.711Z,41.10
2018-06-03T07:52:51.315Z,39.10
2018-06-03T07:55:18.951Z,39.80
2018-06-03T07:57:46.538Z,40.73
2018-06-03T08:00:14.159Z,42.43
2018-06-03T08:02:41.747Z,36.77
2018-06-03T08:05:09.352Z,36.70
2018-06-03T08:07:37.893Z,30.40
2018-06-03T08:10:05.519Z,31.10
2018-06-03T08:12:33.142Z,32.10
2018-06-03T08:15:00.717Z,34.60
2018-06-03T08:17:28.320Z,35.73
2018-06-03T08:19:56.700Z,35.80
2018-06-03T08:22:24.261Z,34.70
2018-06-03T08:24:51.912Z,38.80
2018-06-03T08:27:19.508Z,36.77
2018-06-03T08:29:47.113Z,35.90
2018-06-03T08:32:14.740Z,36.33
2018-06-03T08:34:42.332Z,35.30
2018-06-03T08:37:09.909Z,37.17
2018-06-03T08:39:37.509Z,37.57
2018-06-03T08:42:05.107Z,35.63
2018-06-03T08:44:32.705Z,35.73
2018-06-03T08:47:00.267Z,37.27
2018-06-03T08:49:27.883Z,35.50
2018-06-03T08:51:55.485Z,33.90
2018-06-03T08:54:23.131Z,38.47
2018-06-03T08:56:50.772Z,35.87
2018-06-03T09:00:19.040Z,39.63
2018-06-03T09:02:46.651Z,40.00
2018-06-03T09:05:14.577Z,41.70
2018-06-03T09:07:42.931Z,38.40
2018-06-03T09:10:11.599Z,38.80
2018-06-03T09:12:39.228Z,38.70
2018-06-03T09:15:06.816Z,29.87
2018-06-03T09:17:34.427Z,31.70
2018-06-03T09:20:02.843Z,32.33
2018-06-03T09:22:30.452Z,27.73
2018-06-03T09:24:58.861Z,27.77
2018-06-03T09:27:26.534Z,28.97
2018-06-03T09:29:54.142Z,29.87
2018-06-03T09:32:21.776Z,28.10
2018-06-03T09:34:49.474Z,28.40
2018-06-03T09:37:17.062Z,28.67
2018-06-03T09:39:45.707Z,29.73
2018-06-03T09:42:13.300Z,28.53
2018-06-03T09:44:41.672Z,26.27
2018-06-03T09:47:10.200Z,27.83
2018-06-03T09:49:38.723Z,28.30
2018-06-03T09:52:06.392Z,29.43
2018-06-03T09:54:34.041Z,29.40
2018-06-03T09:57:02.484Z,30.37
2018-06-03T09:59:31.131Z,29.67
2018-06-03T10:01:59.271Z,27.00
2018-06-03T10:04:26.941Z,28.37
2018-06-03T10:06:55.513Z,24.50
2018-06-03T10:09:23.897Z,26.90
2018-06-03T10:11:51.510Z,24.70
2018-06-03T10:14:20.105Z,24.40
2018-06-03T10:16:47.743Z,26.10
2018-06-03T10:19:16.223Z,25.53
2018-06-03T10:21:43.929Z,25.00
2018-06-03T10:24:12.362Z,23.17
2018-06-03T10:26:46.931Z,25.40
2018-06-03T10:29:16.159Z,22.73
2018-06-03T10:31:44.672Z,19.53
2018-06-03T10:34:13.716Z,18.20
2018-06-03T10:36:41.517Z,14.77
2018-06-03T10:39:10.044Z,14.20
2018-06-03T10:41:37.651Z,16.07
2018-06-03T10:44:06.195Z,15.67
2018-06-03T10:46:37.194Z,15.10
2018-06-03T10:49:04.847Z,14.80
2018-06-03T10:51:32.485Z,16.40
2018-06-03T10:54:00.096Z,17.80
2018-06-03T10:56:28.556Z,15.10
2018-06-03T10:58:56.157Z,14.73
2018-06-03T11:01:23.759Z,13.43
2018-06-03T11:03:51.363Z,14.07
2018-06-03T11:06:19.743Z,13.03
2018-06-03T11:08:48.129Z,17.20
2018-06-03T11:11:16.641Z,16.70
2018-06-03T11:13:44.265Z,16.30
2018-06-03T11:16:11.896Z,15.73
2018-06-03T11:18:39.538Z,15.80
2018-06-03T11:21:07.152Z,14.43
2018-06-03T11:23:34.771Z,16.00
2018-06-03T11:26:02.421Z,16.03
2018-06-03T11:28:30.028Z,15.53
2018-06-03T11:30:58.699Z,16.70
2018-06-03T11:33:27.099Z,14.17
2018-06-03T11:35:54.756Z,16.43
2018-06-03T11:38:22.363Z,20.00
2018-06-03T11:40:49.996Z,15.50
2018-06-03T11:43:17.672Z,15.77
2018-06-03T11:45:45.256Z,15.13
2018-06-03T11:48:12.894Z,18.40
2018-06-03T11:50:40.513Z,18.00
2018-06-03T11:53:08.140Z,18.07
2018-06-03T11:55:35.783Z,19.90
2018-06-03T11:58:15.098Z,19.03
2018-06-03T12:00:42.655Z,21.10
2018-06-03T12:03:10.300Z,17.90
2018-06-03T12:05:37.934Z,19.80
2018-06-03T12:08:06.276Z,18.70
2018-06-03T12:10:33.885Z,17.53
2018-06-03T12:13:01.518Z,20.83
2018-06-03T12:15:29.950Z,23.80
2018-06-03T12:17:57.567Z,20.50
2018-06-03T12:20:25.931Z,22.23
2018-06-03T12:22:54.334Z,25.57
2018-06-03T12:25:21.935Z,21.70
2018-06-03T12:27:49.611Z,22.67
2018-06-03T12:30:17.200Z,23.50
2018-06-03T12:32:45.528Z,21.97
2018-06-03T12:35:13.147Z,21.93
2018-06-03T12:37:40.746Z,23.67
2018-06-03T12:40:08.379Z,21.70
2018-06-03T12:42:35.949Z,23.23
2018-06-03T12:45:03.607Z,21.43
2018-06-03T12:47:31.216Z,23.77
2018-06-03T12:49:59.624Z,21.33
2018-06-03T12:52:27.282Z,22.43
2018-06-03T12:54:54.912Z,20.37
2018-06-03T12:57:23.267Z,19.70
2018-06-03T12:59:50.898Z,20.43
2018-06-03T13:02:18.467Z,20.97
2018-06-03T13:04:46.104Z,21.00
2018-06-03T13:07:13.723Z,20.50
2018-06-03T13:09:41.293Z,20.07
2018-06-03T13:12:09.645Z,20.30
2018-06-03T13:14:37.284Z,13.93
2018-06-03T13:17:04.935Z,17.40
2018-06-03T13:19:32.519Z,18.70
2018-06-03T13:22:00.136Z,18.20
2018-06-03T13:24:27.749Z,18.00
2018-06-03T13:26:55.401Z,18.93
2018-06-03T13:29:23.072Z,17.83
2018-06-03T13:31:50.784Z,20.57
2018-06-03T13:34:18.377Z,19.90
2018-06-03T13:36:46.038Z,18.00
2018-06-03T13:39:13.629Z,16.67
2018-06-03T13:41:42.055Z,17.33
2018-06-03T13:44:09.612Z,15.10
2018-06-03T13:46:37.284Z,15.40
2018-06-03T13:49:04.979Z,16.50
2018-06-03T13:51:33.412Z,14.50
2018-06-03T13:54:01.020Z,15.93
2018-06-03T13:56:29.402Z,14.30
2018-06-03T13:58:57.765Z,11.50
2018-06-03T14:01:25.414Z,10.87
2018-06-03T14:03:53.085Z,10.30
2018-06-03T14:06:20.668Z,9.80
2018-06-03T14:08:48.330Z,10.27
2018-06-03T14:11:15.977Z,12.43
2018-06-03T14:13:44.385Z,12.23
2018-06-03T14:16:11.966Z,13.47
2018-06-03T14:18:39.557Z,11.17
2018-06-03T14:21:07.189Z,16.30
2018-06-03T14:23:34.837Z,14.60
2018-06-03T14:26:02.452Z,14.97
2018-06-03T14:28:30.807Z,16.27
2018-06-03T14:30:59.383Z,13.77
2018-06-03T14:33:26.983Z,13.37
2018-06-03T14:35:54.589Z,16.13
2018-06-03T14:38:22.176Z,17.73
2018-06-03T14:40:49.792Z,17.47
2018-06-03T14:43:17.407Z,14.37
2018-06-03T14:45:45.735Z,15.13
2018-06-03T14:48:13.344Z,14.00
2018-06-03T14:50:41.804Z,16.93
2018-06-03T14:53:09.368Z,14.93
2018-06-03T14:55:36.959Z,17.23
2018-06-03T14:58:04.582Z,18.37
2018-06-03T15:00:32.098Z,16.33
2018-06-03T15:02:59.691Z,14.40
2018-06-03T15:05:27.292Z,15.93
2018-06-03T15:07:54.911Z,16.33
2018-06-03T15:10:22.540Z,18.10
2018-06-03T15:12:50.870Z,20.20
2018-06-03T15:15:18.496Z,20.30
2018-06-03T15:17:46.091Z,17.10
2018-06-03T15:20:13.774Z,17.10
2018-06-03T15:22:41.371Z,17.63
2018-06-03T15:25:09.739Z,16.63
2018-06-03T15:27:39.072Z,15.93
2018-06-03T15:30:07.476Z,15.77
2018-06-03T15:32:35.117Z,14.57
2018-06-03T15:35:03.452Z,15.60
2018-06-03T15:37:31.044Z,14.63
2018-06-03T15:39:58.709Z,14.50
2018-06-03T15:42:26.320Z,13.67
2018-06-03T15:44:53.959Z,13.30
2018-06-03T15:47:21.589Z,12.70
2018-06-03T15:49:49.964Z,12.93
2018-06-03T15:52:17.571Z,13.27
2018-06-03T15:54:45.175Z,12.77
2018-06-03T15:57:12.764Z,12.70
2018-06-03T15:59:41.119Z,10.00
2018-06-03T16:02:08.692Z,10.60
2018-06-03T16:04:37.062Z,13.50
2018-06-03T16:07:04.721Z,11.17
2018-06-03T16:09:32.359Z,10.17
2018-06-03T16:11:59.932Z,10.23
2018-06-03T16:14:27.607Z,10.80
2018-06-03T16:16:55.236Z,13.70
2018-06-03T16:19:22.841Z,10.83
2018-06-03T16:21:51.213Z,13.70
2018-06-03T16:24:18.956Z,12.10
2018-06-03T16:26:46.499Z,13.10
2018-06-03T16:29:14.099Z,11.50
2018-06-03T16:31:42.509Z,11.80
2018-06-03T16:34:10.088Z,11.60
2018-06-03T16:36:37.708Z,9.90
2018-06-03T16:39:05.306Z,9.53
2018-06-03T16:41:32.878Z,8.80
2018-06-03T16:44:00.588Z,9.07
2018-06-03T16:46:28.202Z,9.60
2018-06-03T16:48:57.073Z,9.93
2018-06-03T16:51:24.680Z,10.50
2018-06-03T16:53:52.283Z,8.47
2018-06-03T16:56:19.932Z,9.70
2018-06-03T16:58:47.515Z,9.00
2018-06-03T17:01:15.976Z,7.87
2018-06-03T17:03:43.615Z,11.80
2018-06-03T17:06:11.929Z,11.57
2018-06-03T17:08:39.513Z,12.57
2018-06-03T17:11:07.883Z,13.43
2018-06-03T17:13:35.497Z,12.13
2018-06-03T17:16:03.079Z,11.10
2018-06-03T17:18:30.679Z,13.80
2018-06-03T17:20:59.017Z,11.10
2018-06-03T17:23:26.606Z,12.40
2018-06-03T17:25:55.000Z,11.80
2018-06-03T17:28:22.587Z,11.30
2018-06-03T17:30:50.172Z,11.97
2018-06-03T17:33:17.789Z,10.97
2018-06-03T17:35:45.374Z,12.00
2018-06-03T17:38:12.988Z,12.83
2018-06-03T17:40:41.472Z,13.30
2018-06-03T17:43:09.066Z,12.53
2018-06-03T17:45:36.634Z,15.07
2018-06-03T17:48:04.249Z,14.10
2018-06-03T17:50:31.833Z,16.23
2018-06-03T17:52:59.437Z,12.93
2018-06-03T17:55:27.031Z,14.60
2018-06-03T17:57:54.640Z,13.00
2018-06-03T18:00:22.290Z,12.70
2018-06-03T18:02:49.903Z,11.40
2018-06-03T18:05:17.532Z,13.30
2018-06-03T18:07:45.124Z,12.27
2018-06-03T18:10:12.728Z,12.37
2018-06-03T18:12:40.342Z,11.60
2018-06-03T18:15:08.947Z,10.70
2018-06-03T18:17:39.135Z,10.97
2018-06-03T18:20:06.715Z,10.27
2018-06-03T18:22:34.389Z,9.20
2018-06-03T18:25:02.700Z,11.60
2018-06-03T18:27:30.319Z,10.27
2018-06-03T18:29:57.930Z,10.77
2018-06-03T18:32:25.523Z,11.17
2018-06-03T18:34:53.132Z,10.63
2018-06-03T18:37:20.761Z,10.40
2018-06-03T18:39:48.393Z,9.20
2018-06-03T18:42:16.019Z,10.60
2018-06-03T18:44:43.612Z,11.13
2018-06-03T18:47:11.262Z,9.60
2018-06-03T18:49:40.465Z,10.80
2018-06-03T18:52:08.071Z,12.77
2018-06-03T18:54:35.696Z,12.10
2018-06-03T18:57:03.315Z,10.50
2018-06-03T18:59:30.991Z,10.83
2018-06-03T19:01:58.563Z,11.50
2018-06-03T19:04:26.176Z,10.90
2018-06-03T19:06:53.764Z,12.63
2018-06-03T19:09:22.177Z,11.60
2018-06-03T19:11:49.800Z,12.03
2018-06-03T19:14:18.191Z,12.97
2018-06-03T19:16:46.561Z,11.90
2018-06-03T19:19:14.198Z,11.90
2018-06-03T19:21:41.839Z,13.07
2018-06-03T19:24:09.421Z,14.40
2018-06-03T19:26:37.018Z,12.97
2018-06-03T19:29:04.609Z,12.83
2018-06-03T19:31:32.240Z,14.17
2018-06-03T19:33:59.858Z,11.90
2018-06-03T19:36:27.487Z,14.13
2018-06-03T19:38:55.148Z,15.20
2018-06-03T19:41:22.742Z,16.77
2018-06-03T19:43:50.384Z,15.70
2018-06-03T19:46:18.017Z,16.13
2018-06-03T19:48:45.612Z,16.23
2018-06-03T19:51:13.223Z,19.50
2018-06-03T19:53:40.836Z,17.37
2018-06-03T19:56:08.539Z,15.17
2018-06-03T19:58:36.146Z,15.33
2018-06-03T20:01:03.767Z,16.30
2018-06-03T20:03:31.373Z,14.30
2018-06-03T20:05:58.986Z,19.30
2018-06-03T20:08:26.583Z,16.30
2018-06-03T20:10:54.197Z,17.73
2018-06-03T20:13:21.769Z,18.43
2018-06-03T20:15:49.374Z,17.47
2018-06-03T20:18:16.975Z,15.00
2018-06-03T20:20:44.601Z,17.77
2018-06-03T20:23:12.228Z,15.93
2018-06-03T20:25:39.793Z,17.87
2018-06-03T20:28:07.423Z,17.50
2018-06-03T20:30:35.111Z,21.60
2018-06-03T20:33:02.713Z,19.37
2018-06-03T20:35:31.275Z,19.33
2018-06-03T20:37:58.923Z,21.43
2018-06-03T20:40:26.543Z,22.40
2018-06-03T20:42:54.146Z,22.30
2018-06-03T20:45:22.555Z,23.77
2018-06-03T20:47:50.158Z,26.37
2018-06-03T20:50:17.801Z,24.70
2018-06-03T20:52:45.399Z,20.60
2018-06-03T20:55:13.044Z,21.03
2018-06-03T20:57:40.646Z,19.43
2018-06-03T21:00:08.270Z,21.63
2018-06-03T21:02:35.855Z,22.77
2018-06-03T21:05:04.260Z,26.17
2018-06-03T21:07:31.930Z,28.70
2018-06-03T21:09:59.533Z,30.47
2018-06-03T21:12:27.140Z,29.93
2018-06-03T21:14:54.718Z,31.80
2018-06-03T21:17:22.262Z,31.67
2018-06-03T21:19:49.878Z,27.87
2018-06-03T21:22:17.494Z,30.57
2018-06-03T21:24:45.084Z,29.33
2018-06-03T21:27:12.739Z,32.07
2018-06-03T21:29:40.311Z,32.97
2018-06-03T21:32:07.902Z,33.80
2018-06-03T21:34:35.500Z,34.37
2018-06-03T21:37:03.057Z,34.97
2018-06-03T21:39:30.676Z,30.00
2018-06-03T21:41:58.293Z,35.57
2018-06-03T21:44:25.884Z,35.50
2018-06-03T21:46:53.446Z,35.73
2018-06-03T21:49:21.050Z,34.03
2018-06-03T21:51:48.659Z,33.00
2018-06-03T21:54:17.086Z,35.67
2018-06-03T21:56:44.659Z,33.67
2018-06-03T21:59:12.336Z,33.73
2018-06-03T22:01:39.955Z,35.03
2018-06-03T22:04:07.609Z,38.63
2018-06-03T22:06:35.180Z,38.83
2018-06-03T22:09:02.791Z,42.17
2018-06-03T22:11:31.174Z,46.67
2018-06-03T22:13:59.546Z,46.20
2018-06-03T22:16:27.929Z,44.00
2018-06-03T22:18:55.500Z,46.40
2018-06-03T22:21:23.123Z,43.50
2018-06-03T22:23:50.712Z,39.83
2018-06-03T22:26:18.338Z,45.83
2018-06-03T22:28:45.900Z,45.87
2018-06-03T22:31:13.518Z,45.07
2018-06-03T22:33:41.107Z,44.67
2018-06-03T22:36:08.697Z,42.23
2018-06-03T22:38:36.300Z,44.23
2018-06-03T22:41:03.996Z,43.90
2018-06-03T22:43:31.639Z,44.07
2018-06-03T22:45:59.251Z,48.83
2018-06-03T22:48:26.851Z,45.80
2018-06-03T22:50:54.699Z,46.47
2018-06-03T22:53:22.275Z,45.93
2018-06-03T22:55:49.897Z,39.03
2018-06-03T22:58:17.489Z,41.23
2018-06-03T23:00:45.063Z,45.20
2018-06-03T23:03:12.647Z,47.13
2018-06-03T23:05:40.969Z,45.07
2018-06-03T23:08:08.568Z,50.87
2018-06-03T23:10:36.967Z,42.77
2018-06-03T23:13:05.289Z,44.00
2018-06-03T23:15:32.901Z,45.77
2018-06-03T23:18:00.472Z,44.40
2018-06-03T23:20:28.095Z,51.27
2018-06-03T23:22:55.643Z,51.10
2018-06-03T23:25:23.314Z,58.00
2018-06-03T23:27:52.719Z,53.80
2018-06-03T23:30:20.381Z,58.50
2018-06-03T23:32:49.270Z,61.07
2018-06-03T23:35:16.838Z,53.00
2018-06-03T23:37:45.229Z,49.90
2018-06-03T23:40:13.672Z,50.77
2018-06-03T23:42:41.282Z,54.00
2018-06-03T23:45:08.861Z,52.23
2018-06-03T23:47:36.495Z,51.03
2018-06-03T23:50:04.181Z,45.60
2018-06-03T23:52:31.811Z,40.37
2018-06-03T23:54:59.495Z,42.60
2018-06-03T23:57:27.105Z,50.20
2018-06-03T23:59:55.477Z,52.47
